createdAt,value
2023-05-14T00:00:53.781Z,100876.53
2023-05-14T00:01:57.483Z,100901.66
2023-05-14T00:03:01.300Z,100902.13
2023-05-14T00:04:05.292Z,100913.59
2023-05-14T00:05:10.011Z,100896.13
2023-05-14T00:06:13.803Z,100907.38
2023-05-14T00:07:17.490Z,100909.69
2023-05-14T00:08:21.131Z,100917.72
2023-05-14T00:09:24.770Z,100921.56
2023-05-14T00:10:28.769Z,100929.59
2023-05-14T00:11:32.438Z,100930.84
2023-05-14T00:12:36.170Z,100933.53
2023-05-14T00:13:41.547Z,100939.50
2023-05-14T00:14:45.225Z,100939.59
2023-05-14T00:15:48.951Z,100941.91
2023-05-14T00:16:52.814Z,100933.25
2023-05-14T00:17:56.573Z,100940.84
2023-05-14T00:19:00.369Z,100934.41
2023-05-14T00:20:04.552Z,100934.84
2023-05-14T00:21:08.243Z,100937.38
2023-05-14T00:22:12.429Z,100934.50
2023-05-14T00:23:16.176Z,100937.44
2023-05-14T00:24:19.835Z,100928.69
2023-05-14T00:25:23.642Z,100935.22
2023-05-14T00:26:27.272Z,100940.56
2023-05-14T00:27:30.974Z,100939.06
2023-05-14T00:28:37.612Z,100939.41
2023-05-14T00:29:43.118Z,100951.38
2023-05-14T00:30:46.893Z,100954.28
2023-05-14T00:31:50.672Z,100913.34
2023-05-14T00:32:54.502Z,100953.91
2023-05-14T00:33:58.167Z,100937.56
2023-05-14T00:35:02.006Z,100950.56
2023-05-14T00:36:06.017Z,100957.63
2023-05-14T00:37:09.837Z,100962.00
2023-05-14T00:38:13.558Z,100959.44
2023-05-14T00:39:17.238Z,100937.81
2023-05-14T00:40:21.636Z,100962.75
2023-05-14T00:41:25.460Z,100963.00
2023-05-14T00:42:29.225Z,100960.78
2023-05-14T00:43:32.898Z,100964.00
2023-05-14T00:44:37.105Z,100964.00
2023-05-14T00:45:42.489Z,100959.19
2023-05-14T00:46:46.404Z,100967.13
2023-05-14T00:47:50.530Z,100957.94
2023-05-14T00:48:54.672Z,100967.22
2023-05-14T00:49:58.486Z,100969.97
2023-05-14T00:51:02.198Z,100977.91
2023-05-14T00:52:06.390Z,100967.22
2023-05-14T00:53:11.048Z,100970.06
2023-05-14T00:54:15.515Z,100951.28
2023-05-14T00:55:19.971Z,100979.81
2023-05-14T00:56:23.978Z,100955.06
2023-05-14T00:57:27.968Z,100975.59
2023-05-14T00:58:31.773Z,100978.19
2023-05-14T00:59:35.931Z,100980.69
2023-05-14T01:00:41.989Z,100876.53
2023-05-14T01:01:45.946Z,100989.25
2023-05-14T01:02:49.709Z,100984.53
2023-05-14T01:03:53.733Z,100980.84
2023-05-14T01:04:57.716Z,100992.66
2023-05-14T01:06:11.065Z,100974.28
2023-05-14T01:07:21.819Z,100981.59
2023-05-14T01:08:33.741Z,100994.91
2023-05-14T01:09:43.594Z,100997.75
2023-05-14T01:10:53.089Z,100994.81
2023-05-14T01:12:02.576Z,100996.25
2023-05-14T01:13:22.817Z,101002.75
2023-05-14T01:14:38.506Z,100989.91
2023-05-14T01:15:45.355Z,100997.66
2023-05-14T01:16:51.140Z,100997.75
2023-05-14T01:17:58.818Z,100995.88
2023-05-14T01:19:03.632Z,101000.50
2023-05-14T01:20:09.216Z,100991.84
2023-05-14T01:21:45.206Z,101002.66
2023-05-14T01:22:48.949Z,100997.56
2023-05-14T01:23:52.653Z,101000.88
2023-05-14T01:24:56.424Z,100992.94
2023-05-14T01:26:00.148Z,100993.91
2023-05-14T01:27:11.585Z,101005.13
2023-05-14T01:28:19.276Z,100994.00
2023-05-14T01:29:25.383Z,100993.09
2023-05-14T01:30:32.616Z,100990.44
2023-05-14T01:31:40.036Z,100995.38
2023-05-14T01:32:47.718Z,100996.69
2023-05-14T01:33:52.929Z,100995.97
2023-05-14T01:34:59.198Z,100989.19
2023-05-14T01:36:06.653Z,100998.75
2023-05-14T01:37:13.764Z,100987.41
2023-05-14T01:38:20.266Z,100984.66
2023-05-14T01:39:25.789Z,100985.63
2023-05-14T01:40:30.562Z,100983.84
2023-05-14T01:41:34.785Z,100980.00
2023-05-14T01:42:39.253Z,100994.72
2023-05-14T01:43:43.140Z,100997.94
2023-05-14T01:44:47.192Z,100990.81
2023-05-14T01:45:50.998Z,100999.72
2023-05-14T01:46:54.803Z,100995.69
2023-05-14T01:47:58.890Z,100999.72
2023-05-14T01:49:02.780Z,100995.34
2023-05-14T01:50:07.296Z,101001.44
2023-05-14T01:51:10.931Z,101002.22
2023-05-14T01:52:16.244Z,100982.94
2023-05-14T01:53:19.988Z,101001.13
2023-05-14T01:54:23.769Z,100991.06
2023-05-14T01:55:27.468Z,101004.72
2023-05-14T01:56:31.148Z,100999.09
2023-05-14T01:57:34.820Z,100997.31
2023-05-14T01:58:38.441Z,101004.09
2023-05-14T01:59:42.095Z,101003.09
2023-05-14T02:00:45.837Z,101007.41
2023-05-14T15:53:21.553Z,101031.81
2023-05-14T15:54:25.280Z,101021.94
2023-05-14T15:55:29.016Z,101025.16
2023-05-14T15:56:32.787Z,101018.03
2023-05-14T15:57:36.543Z,101012.97
2023-05-14T15:58:40.419Z,101015.25
2023-05-14T15:59:44.315Z,101005.84
2023-05-14T16:00:47.950Z,101004.69
2023-05-14T16:01:52.193Z,101002.66
2023-05-14T16:02:55.959Z,100981.81
2023-05-14T16:03:59.781Z,100999.19
2023-05-14T16:05:03.645Z,100980.31
2023-05-14T16:06:07.844Z,100985.97
2023-05-14T16:07:12.001Z,101001.28
2023-05-14T16:08:17.904Z,100984.34
2023-05-14T16:09:23.230Z,100996.25
2023-05-14T16:10:27.288Z,100979.88
2023-05-14T16:11:31.838Z,100988.41
2023-05-14T16:12:35.612Z,100981.66
2023-05-14T16:13:39.443Z,101002.69
2023-05-14T16:14:43.124Z,100991.66
2023-05-14T16:15:46.918Z,100974.94
2023-05-14T16:16:50.935Z,100947.88
2023-05-14T16:17:54.896Z,101001.06
2023-05-14T16:18:58.698Z,100993.94
2023-05-14T16:20:02.517Z,100971.56
2023-05-14T16:21:06.289Z,100994.81
2023-05-14T16:22:10.004Z,100988.25
2023-05-14T16:23:13.707Z,100993.91
2023-05-14T16:24:19.195Z,100976.84
2023-05-14T16:25:24.589Z,100995.84
2023-05-14T16:26:28.368Z,100997.34
2023-05-14T16:27:32.220Z,100981.47
2023-05-14T16:28:38.228Z,100986.44
2023-05-14T16:29:42.045Z,100994.38
2023-05-14T16:30:45.853Z,100991.63
2023-05-14T16:31:49.706Z,100995.50
2023-05-14T16:32:53.597Z,100989.53
2023-05-14T16:33:57.340Z,100982.53
2023-05-14T16:35:01.067Z,100984.47
2023-05-14T16:36:07.746Z,100973.66
2023-05-14T16:37:13.137Z,100971.38
2023-05-14T16:38:17.407Z,100964.56
2023-05-14T16:39:23.375Z,100958.16
2023-05-14T16:40:31.784Z,100961.34
2023-05-14T16:41:37.708Z,100980.66
2023-05-14T16:42:41.543Z,100954.44
2023-05-14T16:43:45.259Z,100968.59
2023-05-14T16:44:49.030Z,100976.31
2023-05-14T16:45:52.783Z,100972.06
2023-05-14T16:46:57.218Z,100970.13
2023-05-14T16:48:01.101Z,100940.47
2023-05-14T16:49:05.079Z,100962.81
2023-05-14T16:50:09.476Z,100959.69
2023-05-14T16:51:13.178Z,100966.81
2023-05-14T16:52:16.881Z,100964.06
2023-05-14T16:53:20.700Z,100959.34
2023-05-14T16:54:24.475Z,100961.78
2023-05-14T16:55:30.009Z,100954.63
2023-05-14T16:56:33.672Z,100952.34
2023-05-14T16:57:37.360Z,100957.88
2023-05-14T16:58:41.066Z,100917.00
2023-05-14T16:59:47.623Z,100948.72
2023-05-14T17:00:51.440Z,100941.09
2023-05-14T17:01:56.078Z,100943.25
2023-05-14T17:03:02.079Z,100943.94
2023-05-14T17:04:05.843Z,100952.34
2023-05-14T17:05:13.520Z,100944.19
2023-05-14T17:06:17.308Z,100946.50
2023-05-14T17:07:21.081Z,100947.50
2023-05-14T17:08:24.809Z,100938.00
2023-05-14T17:09:28.596Z,100944.19
2023-05-14T17:10:33.960Z,100945.44
2023-05-14T17:11:37.679Z,100947.06
2023-05-14T17:12:41.366Z,100934.41
2023-05-14T17:13:45.744Z,100918.06
2023-05-14T17:14:49.451Z,100926.38
2023-05-14T17:15:53.196Z,100931.91
2023-05-14T17:16:56.909Z,100939.50
2023-05-14T17:18:00.765Z,100926.59
2023-05-14T17:19:07.665Z,100811.56
2023-05-14T17:20:13.643Z,100910.56
2023-05-14T17:21:20.931Z,100935.56
2023-05-14T17:22:24.548Z,100937.28
2023-05-14T17:23:28.235Z,100936.94
2023-05-14T17:24:31.962Z,100911.16
2023-05-14T17:25:37.303Z,100934.66
2023-05-14T17:26:41.042Z,100920.63
2023-05-14T17:27:46.697Z,100932.69
2023-05-14T17:28:50.276Z,100933.50
2023-05-14T17:29:53.964Z,100918.22
2023-05-14T17:31:00.380Z,100913.44
2023-05-14T17:32:13.616Z,100914.50
2023-05-14T17:33:17.395Z,100930.63
2023-05-14T17:34:21.254Z,100897.13
2023-05-14T17:35:25.207Z,100914.88
2023-05-14T17:36:29.010Z,100916.34
2023-05-14T17:37:32.707Z,100901.97
2023-05-14T17:38:36.736Z,100903.38
2023-05-14T17:39:40.398Z,100907.75
2023-05-14T17:40:45.698Z,100851.63
2023-05-14T17:41:49.383Z,100900.97
2023-05-14T17:42:53.236Z,100892.09
2023-05-14T17:43:56.932Z,100874.97
2023-05-14T17:45:00.628Z,100851.97
2023-05-14T17:46:04.345Z,100900.97
2023-05-14T17:47:08.501Z,100897.00
2023-05-14T17:48:12.338Z,100873.78
2023-05-14T17:49:16.040Z,100848.84
2023-05-14T17:50:19.938Z,100895.75
2023-05-14T17:51:23.596Z,100889.31
2023-05-14T17:52:27.416Z,100890.63
2023-05-14T17:53:31.130Z,100794.16
2023-05-14T17:54:34.861Z,100888.53
2023-05-14T17:55:38.572Z,100874.03
2023-05-14T17:56:44.031Z,100880.75
2023-05-14T17:57:48.235Z,100882.44
2023-05-14T17:58:51.965Z,100881.06
2023-05-14T17:59:55.616Z,100866.94
2023-05-14T18:00:59.331Z,100886.28
2023-05-14T18:02:03.030Z,100886.81
2023-05-14T18:03:06.878Z,100873.50
2023-05-14T18:04:10.655Z,100880.75
2023-05-14T18:05:14.423Z,100875.56
2023-05-14T18:06:18.090Z,100861.91
2023-05-14T18:07:21.797Z,100866.28
2023-05-14T18:08:25.512Z,100861.09
2023-05-14T18:09:29.233Z,100875.91
2023-05-14T18:10:33.205Z,100873.16
2023-05-14T18:11:36.975Z,100866.84
2023-05-14T18:12:42.339Z,100843.47
2023-05-14T18:13:46.209Z,100838.53
2023-05-14T18:14:49.937Z,100806.03
2023-05-14T18:15:54.191Z,100865.81
2023-05-14T18:16:57.986Z,100863.81
2023-05-14T18:18:01.836Z,100857.63
2023-05-14T18:19:06.000Z,100854.84
2023-05-14T18:20:10.574Z,100847.94
2023-05-14T18:21:14.294Z,100849.00
2023-05-14T18:22:18.007Z,100859.81
2023-05-14T18:23:21.661Z,100846.50
2023-05-14T18:24:25.294Z,100852.09
2023-05-14T18:25:29.353Z,100854.06
2023-05-14T18:26:34.354Z,100831.66
2023-05-14T18:27:38.173Z,100848.53
2023-05-14T18:28:43.611Z,100846.50
2023-05-14T18:29:47.299Z,100843.63
2023-05-14T18:30:50.957Z,100844.97
2023-05-14T18:31:54.691Z,100833.69
2023-05-14T18:32:58.368Z,100841.31
2023-05-14T18:34:01.995Z,100827.06
2023-05-14T18:35:08.003Z,100809.59
2023-05-14T18:36:12.229Z,100827.28
2023-05-14T18:37:16.071Z,100824.28
2023-05-14T18:38:19.805Z,100808.31
2023-05-14T18:39:23.446Z,100813.97
2023-05-14T18:40:27.095Z,100811.78
2023-05-14T18:41:30.738Z,100820.16
2023-05-14T18:42:34.472Z,100771.53
2023-05-14T18:43:38.172Z,100811.66
2023-05-14T18:44:43.545Z,100816.03
2023-05-14T18:45:47.617Z,100814.06
2023-05-14T18:46:51.337Z,100802.91
2023-05-14T18:47:55.857Z,100769.81
2023-05-14T18:48:59.536Z,100809.69
2023-05-14T18:50:03.240Z,100813.59
2023-05-14T18:51:07.012Z,100794.44
2023-05-14T18:52:10.743Z,100807.75
2023-05-14T18:53:14.396Z,100807.28
2023-05-14T18:54:18.119Z,100816.72
2023-05-14T18:55:21.922Z,100809.22
2023-05-14T18:56:25.680Z,100798.09
2023-05-14T18:57:29.410Z,100813.47
2023-05-14T18:58:33.437Z,100813.72
2023-05-14T18:59:37.153Z,100799.13
2023-05-14T19:00:42.598Z,100795.25
2023-05-14T19:01:46.320Z,100805.56
2023-05-14T19:02:50.157Z,100800.84
2023-05-14T19:03:54.278Z,100803.84
2023-05-14T19:04:58.128Z,100796.47
2023-05-14T19:06:01.927Z,100801.41
2023-05-14T19:07:05.869Z,100776.94
2023-05-14T19:08:09.504Z,100793.38
2023-05-14T19:09:13.209Z,100791.66
2023-05-14T19:10:16.883Z,100786.97
2023-05-14T19:11:20.593Z,100793.03
2023-05-14T19:12:24.233Z,100796.59
2023-05-14T19:13:27.932Z,100774.19
2023-05-14T19:14:31.640Z,100795.91
2023-05-14T19:15:35.377Z,100793.56
2023-05-14T19:16:41.417Z,100791.63
2023-05-14T19:17:45.197Z,100768.66
2023-05-14T19:18:49.067Z,100791.19
2023-05-14T19:19:52.859Z,100788.88
2023-05-14T19:20:56.497Z,100784.94
2023-05-14T19:22:00.188Z,100784.16
2023-05-14T19:23:03.930Z,100780.84
2023-05-14T19:24:07.940Z,100769.34
2023-05-14T19:25:12.051Z,100783.34
2023-05-14T19:26:15.734Z,100788.88
2023-05-14T19:27:19.502Z,100780.38
2023-05-14T19:28:23.352Z,100776.94
2023-05-14T19:29:27.051Z,100777.63
2023-05-14T19:30:30.682Z,100775.34
2023-05-14T19:31:34.413Z,100769.47
2023-05-14T19:32:39.905Z,100741.53
2023-05-14T19:33:43.766Z,100765.78
2023-05-14T19:34:48.406Z,100761.88
2023-05-14T19:35:53.243Z,100763.94
2023-05-14T19:36:57.006Z,100761.06
2023-05-14T19:38:00.770Z,100762.78
2023-05-14T19:39:04.600Z,100761.75
2023-05-14T19:40:09.481Z,100764.41
2023-05-14T19:41:13.494Z,100729.03
2023-05-14T19:42:17.404Z,100760.72
2023-05-14T19:43:21.153Z,100756.34
2023-05-14T19:44:25.009Z,100766.34
2023-05-14T19:45:28.824Z,100741.28
2023-05-14T19:46:32.663Z,100762.88
2023-05-14T19:47:36.556Z,100765.22
2023-05-14T19:48:44.498Z,100767.25
2023-05-14T19:49:48.493Z,100764.16
2023-05-14T19:50:52.287Z,100768.06
2023-05-14T19:51:56.089Z,100754.53
2023-05-14T19:52:59.756Z,100765.28
2023-05-14T19:54:03.520Z,100763.69
2023-05-14T19:55:07.617Z,100762.88
2023-05-14T19:56:11.250Z,100741.56
2023-05-14T19:57:17.345Z,100760.84
2023-05-14T19:58:21.069Z,100756.47
2023-05-14T19:59:24.765Z,100755.75
2023-05-14T20:01:39.552Z,100710.19
2023-05-14T20:02:43.339Z,100760.84
2023-05-14T20:03:49.039Z,100748.34
2023-05-14T20:04:52.713Z,100758.44
2023-05-14T20:06:02.984Z,100754.84
